Time;durP1;ratioP1;P1;durP2;ratioP2;P2;SDS_P1;SDS_P2;PMS_P1;PMS_P2;Temp;Humidity;BMP_temperature;BMP_pressure;BME280_temperature;BME280_humidity;BME280_pressure;Samples;Min_cycle;Max_cycle;Signal;HPM_P1;HPM_P2
2022/06/04 00:00:41;;;;;;;3.08;2.60;;;14.90;99.90;;;;;;5092725;28;20066;-74
2022/06/04 00:03:07;;;;;;;3.10;2.25;;;14.90;99.90;;;;;;5092370;28;20023;-74
2022/06/04 00:05:41;;;;;;;7.55;3.03;;;14.80;99.90;;;;;;5093784;28;20028;-74
2022/06/04 00:08:08;;;;;;;3.42;2.40;;;14.80;99.90;;;;;;5079017;28;20036;-74
2022/06/04 00:16:12;;;;;;;3.05;2.22;;;14.80;99.90;;;;;;5092326;28;20062;-74
2022/06/04 00:18:39;;;;;;;2.97;2.67;;;14.80;99.90;;;;;;5078729;28;20099;-73
2022/06/04 00:21:06;;;;;;;6.55;2.33;;;14.70;99.90;;;;;;5092270;28;20158;-73
2022/06/04 00:23:32;;;;;;;4.18;2.75;;;14.60;99.90;;;;;;5092465;28;20028;-73
2022/06/04 00:26:00;;;;;;;2.97;2.60;;;14.50;99.90;;;;;;5092430;28;20020;-75
2022/06/04 00:28:27;;;;;;;3.40;2.53;;;14.60;99.90;;;;;;5080740;28;20123;-74
2022/06/04 00:30:54;;;;;;;2.75;2.53;;;14.50;99.90;;;;;;5087777;28;20017;-74
2022/06/04 00:33:20;;;;;;;2.70;2.47;;;14.40;99.90;;;;;;5082927;28;20502;-73
2022/06/04 00:35:49;;;;;;;2.65;2.45;;;14.40;99.90;;;;;;5091772;28;20101;-73
2022/06/04 00:38:17;;;;;;;3.28;2.78;;;14.40;99.90;;;;;;5092500;28;20058;-73
2022/06/04 00:41:12;;;;;;;2.80;2.60;;;14.30;99.90;;;;;;5092122;28;20368;-73
2022/06/04 00:44:17;;;;;;;4.47;2.72;;;14.40;99.90;;;;;;5090945;28;20024;-73
2022/06/04 00:47:17;;;;;;;3.35;2.55;;;14.30;99.90;;;;;;5080821;28;20093;-74
2022/06/04 00:49:43;;;;;;;;;;;14.30;99.90;;;;;;4990061;28;20481;-73
2022/06/04 00:52:13;;;;;;;2.92;2.67;;;14.30;99.90;;;;;;5070249;28;19970;-73
2022/06/04 00:54:40;;;;;;;5.45;2.75;;;14.30;99.90;;;;;;5092064;28;20047;-74
2022/06/04 00:57:16;;;;;;;3.45;2.72;;;14.20;99.90;;;;;;5091405;28;20032;-73
2022/06/04 00:59:41;;;;;;;3.85;2.72;;;14.20;99.90;;;;;;5091754;28;20040;-73
2022/06/04 01:02:30;;;;;;;3.78;2.80;;;14.20;99.90;;;;;;5091651;28;20285;-73
2022/06/04 01:05:23;;;;;;;2.97;2.70;;;14.00;99.90;;;;;;5090440;28;20028;-73
2022/06/04 01:08:10;;;;;;;3.92;3.17;;;14.10;99.90;;;;;;5082294;28;20065;-73
2022/06/04 01:11:07;;;;;;;3.17;2.80;;;14.10;99.90;;;;;;5091694;28;20078;-73
2022/06/04 01:13:49;;;;;;;4.20;3.80;;;14.00;99.90;;;;;;5077193;28;20037;-73
2022/06/04 01:16:29;;;;;;;4.63;2.80;;;14.10;99.90;;;;;;5091816;28;20095;-73
2022/06/04 01:19:13;;;;;;;;;;;14.00;99.90;;;;;;5091415;28;20021;-73
2022/06/04 01:21:55;;;;;;;3.67;3.38;;;14.10;99.90;;;;;;5091645;28;20352;-73
2022/06/04 01:24:33;;;;;;;6.57;3.10;;;14.00;99.90;;;;;;5077971;28;20020;-73
2022/06/04 01:27:12;;;;;;;5.53;3.88;;;14.10;99.90;;;;;;5091565;28;20035;-74
2022/06/04 01:30:13;;;;;;;7.03;3.97;;;14.00;99.90;;;;;;5096174;28;20085;-73
2022/06/04 01:33:02;;;;;;;4.45;4.05;;;14.00;99.90;;;;;;5077379;28;20392;-74
2022/06/04 01:35:37;;;;;;;8.05;4.65;;;14.00;99.90;;;;;;5043703;28;20032;-74
2022/06/04 01:38:13;;;;;;;6.40;3.60;;;14.00;99.90;;;;;;5082157;28;20103;-74
2022/06/04 01:41:05;;;;;;;3.97;3.55;;;13.80;99.90;;;;;;5095400;28;20353;-74
2022/06/04 01:43:43;;;;;;;7.22;3.83;;;13.90;99.90;;;;;;5095489;28;20107;-74
2022/06/04 01:46:33;;;;;;;4.65;4.28;;;13.90;99.90;;;;;;5094661;28;20069;-73
2022/06/04 01:49:13;;;;;;;8.60;4.47;;;13.90;99.90;;;;;;5075828;28;20020;-73
2022/06/04 01:51:39;;;;;;;6.45;4.28;;;13.80;99.90;;;;;;5083884;28;20028;-73
2022/06/04 01:54:31;;;;;;;5.47;4.32;;;13.80;99.90;;;;;;5094441;28;20040;-74
2022/06/04 01:57:04;;;;;;;5.32;4.45;;;13.90;99.90;;;;;;5084107;28;20040;-74
2022/06/04 01:59:37;;;;;;;6.75;4.70;;;13.80;99.90;;;;;;5094817;28;20046;-73
2022/06/04 02:02:07;;;;;;;5.40;4.82;;;13.80;99.90;;;;;;5094669;28;20036;-73
2022/06/04 02:04:37;;;;;;;8.57;5.45;;;13.70;99.90;;;;;;5094911;28;20107;-72
2022/06/04 02:09:55;;;;;;;7.72;5.82;;;13.70;99.90;;;;;;5094598;28;19919;-73
2022/06/04 02:12:22;;;;;;;7.22;5.57;;;13.70;99.90;;;;;;5095113;28;20495;-74
2022/06/04 02:14:48;;;;;;;5.95;5.45;;;13.70;99.90;;;;;;5094729;28;20020;-73
2022/06/04 02:17:17;;;;;;;7.88;5.82;;;13.60;99.90;;;;;;5095195;28;20027;-73
2022/06/04 02:19:44;;;;;;;6.75;5.43;;;13.50;99.90;;;;;;5094842;28;20468;-73
2022/06/04 02:22:11;;;;;;;6.22;5.60;;;13.40;99.90;;;;;;5093480;28;20042;-73
2022/06/04 02:24:37;;;;;;;7.03;6.32;;;13.50;99.90;;;;;;5094834;28;20035;-73
2022/06/04 02:27:05;;;;;;;9.27;6.60;;;13.50;99.90;;;;;;5094172;28;20020;-73
2022/06/04 02:29:31;;;;;;;7.65;6.50;;;13.50;99.90;;;;;;5094245;28;20031;-73
2022/06/04 02:32:02;;;;;;;8.75;6.13;;;13.50;99.90;;;;;;5095487;28;20032;-73
2022/06/04 02:34:39;;;;;;;6.47;5.88;;;13.40;99.90;;;;;;5094141;28;20059;-73
2022/06/04 02:37:27;;;;;;;6.65;5.65;;;13.50;99.90;;;;;;5094119;28;20024;-72
2022/06/04 02:39:55;;;;;;;6.00;5.47;;;13.50;99.90;;;;;;5091292;28;20058;-73
2022/06/04 02:42:34;;;;;;;7.15;6.45;;;13.50;99.90;;;;;;5082687;28;20069;-73
2022/06/04 02:45:13;;;;;;;7.70;5.65;;;13.50;99.90;;;;;;5094661;28;20475;-75
2022/06/04 02:47:44;;;;;;;6.97;6.32;;;13.40;99.90;;;;;;5094487;28;20468;-74
2022/06/04 02:50:22;;;;;;;9.48;6.97;;;13.30;99.90;;;;;;5093230;28;20468;-74
2022/06/04 02:52:49;;;;;;;7.15;6.40;;;13.30;99.90;;;;;;5094826;28;20139;-74
2022/06/04 02:55:23;;;;;;;6.68;6.00;;;13.40;99.90;;;;;;5094042;28;20103;-74
2022/06/04 02:57:53;;;;;;;7.57;6.03;;;13.20;99.90;;;;;;5093987;28;20020;-74
2022/06/04 03:00:22;;;;;;;8.07;5.97;;;13.20;99.90;;;;;;5079981;28;20555;-74
2022/06/04 03:02:48;;;;;;;8.60;5.55;;;13.10;99.90;;;;;;5085488;28;20098;-74
2022/06/04 03:05:18;;;;;;;7.13;6.50;;;13.20;99.90;;;;;;5089863;28;20028;-74
2022/06/04 03:07:48;;;;;;;8.13;5.72;;;13.10;99.90;;;;;;5094849;28;20012;-74
2022/06/04 03:10:21;;;;;;;8.25;6.43;;;13.10;99.90;;;;;;5093586;28;20031;-74
2022/06/04 03:12:47;;;;;;;6.88;6.18;;;13.10;99.90;;;;;;5093626;28;20059;-74
2022/06/04 03:15:13;;;;;;;7.10;6.40;;;13.00;99.90;;;;;;5093813;28;20054;-74
2022/06/04 03:17:40;;;;;;;9.07;6.05;;;13.00;99.90;;;;;;5092916;28;20092;-74
2022/06/04 03:20:07;;;;;;;7.68;6.63;;;13.00;99.90;;;;;;5093528;28;20028;-74
2022/06/04 03:22:33;;;;;;;9.70;6.57;;;13.00;99.90;;;;;;5079284;28;20032;-73
2022/06/04 03:24:59;;;;;;;10.25;7.00;;;12.90;99.90;;;;;;5092608;28;20031;-74
2022/06/04 03:27:25;;;;;;;6.05;5.45;;;12.90;99.90;;;;;;5093264;28;20016;-73
2022/06/04 03:29:50;;;;;;;6.25;5.53;;;13.00;99.90;;;;;;5092901;28;20103;-74
2022/06/04 03:32:16;;;;;;;7.70;6.43;;;13.00;99.90;;;;;;5092752;28;20502;-73
2022/06/04 03:34:42;;;;;;;9.43;6.80;;;12.90;99.90;;;;;;5093259;28;20024;-74
2022/06/04 03:37:08;;;;;;;6.20;5.60;;;12.90;99.90;;;;;;5093238;28;20035;-73
2022/06/04 03:39:33;;;;;;;8.63;6.03;;;12.80;99.90;;;;;;5092779;28;20131;-73
2022/06/04 03:42:01;;;;;;;5.95;5.40;;;12.80;99.90;;;;;;5093108;28;20108;-73
2022/06/04 03:44:26;;;;;;;7.53;6.82;;;12.80;99.90;;;;;;5092572;28;20064;-73
2022/06/04 03:46:53;;;;;;;12.30;6.72;;;12.80;99.90;;;;;;5086347;28;20487;-73
2022/06/04 03:49:19;;;;;;;9.82;6.68;;;12.80;99.90;;;;;;5086238;28;20028;-73
2022/06/04 03:51:45;;;;;;;10.05;6.15;;;12.80;99.90;;;;;;5091802;28;20028;-73
2022/06/04 03:54:11;;;;;;;7.03;6.22;;;12.80;99.90;;;;;;5092516;28;20032;-73
2022/06/04 03:56:36;;;;;;;11.73;6.32;;;12.90;99.90;;;;;;5092820;28;20111;-73
2022/06/04 03:59:03;;;;;;;8.50;6.10;;;12.90;99.90;;;;;;5091799;28;20055;-74
2022/06/04 04:01:30;;;;;;;13.30;6.07;;;12.90;99.90;;;;;;5092596;28;20468;-73
2022/06/04 04:03:58;;;;;;;6.72;5.55;;;12.90;99.90;;;;;;5092709;28;20032;-74
2022/06/04 04:06:26;;;;;;;7.00;6.22;;;12.90;99.90;;;;;;5092353;28;20330;-74
2022/06/04 04:08:53;;;;;;;10.98;5.93;;;13.10;99.90;;;;;;5092263;28;20043;-73
2022/06/04 04:11:21;;;;;;;14.88;7.00;;;13.00;99.90;;;;;;5092584;28;20054;-73
2022/06/04 04:13:47;;;;;;;8.40;5.85;;;13.00;99.90;;;;;;5092052;28;20552;-73
2022/06/04 04:16:14;;;;;;;6.55;5.70;;;13.00;99.90;;;;;;5093006;28;20026;-73
2022/06/04 04:18:40;;;;;;;9.45;5.85;;;13.00;99.90;;;;;;5092529;28;20028;-73
2022/06/04 04:21:13;;;;;;;8.82;5.75;;;13.00;99.90;;;;;;5091591;28;21078;-74
2022/06/04 04:23:39;;;;;;;8.95;5.10;;;13.10;99.90;;;;;;5093228;28;20024;-74
2022/06/04 04:26:08;;;;;;;6.32;5.57;;;13.10;99.90;;;;;;5092302;28;20046;-73
2022/06/04 04:28:34;;;;;;;9.40;5.10;;;13.10;99.90;;;;;;5091885;28;20020;-74
2022/06/04 04:31:00;;;;;;;9.65;5.68;;;13.00;99.90;;;;;;5089839;28;20464;-74
2022/06/04 04:33:26;;;;;;;12.57;5.30;;;13.10;99.90;;;;;;5080590;28;20419;-73
2022/06/04 04:35:52;;;;;;;9.55;6.28;;;13.20;99.90;;;;;;5091441;28;20024;-73
2022/06/04 04:38:18;;;;;;;12.00;5.80;;;13.20;99.90;;;;;;5092336;28;20384;-73
2022/06/04 04:40:45;;;;;;;8.70;4.95;;;13.10;99.90;;;;;;5079339;28;20092;-73
2022/06/04 04:43:11;;;;;;;7.80;5.88;;;13.20;99.90;;;;;;5075988;28;20097;-73
2022/06/04 04:45:38;;;;;;;9.05;5.05;;;13.10;99.90;;;;;;5092425;28;20068;-73
2022/06/04 04:48:04;;;;;;;6.93;5.22;;;13.20;99.90;;;;;;5091375;28;20465;-73
2022/06/04 04:50:35;;;;;;;7.35;5.68;;;13.10;99.90;;;;;;5092012;28;20026;-74
2022/06/04 04:53:04;;;;;;;5.47;5.07;;;13.20;99.90;;;;;;5077587;28;20041;-73
2022/06/04 04:55:32;;;;;;;6.85;5.47;;;13.20;99.90;;;;;;5091758;28;20016;-73
2022/06/04 04:57:58;;;;;;;10.85;5.75;;;13.10;99.90;;;;;;5091532;28;20056;-73
2022/06/04 05:00:24;;;;;;;8.80;5.47;;;13.20;99.90;;;;;;5092096;28;20032;-73
2022/06/04 05:02:50;;;;;;;9.20;4.57;;;13.30;99.90;;;;;;5091104;28;20521;-73
2022/06/04 05:05:16;;;;;;;7.93;5.38;;;13.30;99.90;;;;;;5091600;28;20521;-73
2022/06/04 05:07:42;;;;;;;8.68;5.38;;;13.40;99.90;;;;;;5091910;28;20077;-73
2022/06/04 05:10:09;;;;;;;8.38;5.60;;;13.40;99.90;;;;;;5091220;28;20024;-73
2022/06/04 05:12:35;;;;;;;9.02;5.00;;;13.50;99.90;;;;;;5091935;28;20028;-73
2022/06/04 05:15:01;;;;;;;9.07;5.30;;;13.50;99.90;;;;;;5091619;28;20036;-73
2022/06/04 05:17:27;;;;;;;8.75;4.85;;;13.50;99.90;;;;;;5091070;28;20084;-73
2022/06/04 05:19:52;;;;;;;12.88;5.72;;;13.50;99.90;;;;;;5091598;28;20115;-73
2022/06/04 05:22:18;;;;;;;8.40;5.30;;;13.50;99.90;;;;;;5091706;28;20107;-73
2022/06/04 05:24:44;;;;;;;10.38;5.35;;;13.50;99.90;;;;;;5091160;28;20028;-74
2022/06/04 05:27:09;;;;;;;8.82;5.47;;;13.50;99.90;;;;;;5092424;28;20024;-73
2022/06/04 05:29:37;;;;;;;8.05;5.63;;;13.50;99.90;;;;;;5093093;28;20464;-76
2022/06/04 05:32:05;;;;;;;8.52;5.53;;;13.60;99.90;;;;;;5091507;28;20020;-75
2022/06/04 05:34:31;;;;;;;6.72;5.32;;;13.50;99.90;;;;;;5079920;28;20107;-73
2022/06/04 05:36:58;;;;;;;9.43;5.45;;;13.50;99.90;;;;;;5088997;28;20028;-75
2022/06/04 05:39:24;;;;;;;9.93;5.85;;;13.50;99.90;;;;;;5090543;28;20020;-75
2022/06/04 05:41:51;;;;;;;10.00;7.03;;;13.50;99.90;;;;;;5090344;28;20024;-73
2022/06/04 05:44:17;;;;;;;15.85;5.97;;;13.60;99.90;;;;;;5089856;28;20126;-73
2022/06/04 05:46:44;;;;;;;7.78;6.10;;;13.50;99.90;;;;;;5089408;28;20039;-73
2022/06/04 05:49:11;;;;;;;8.07;5.50;;;13.50;99.90;;;;;;5089327;28;20035;-75
2022/06/04 05:51:38;;;;;;;10.35;5.55;;;13.50;99.90;;;;;;5088514;28;20175;-74
2022/06/04 05:54:05;;;;;;;8.57;6.45;;;13.50;99.90;;;;;;5090113;28;20064;-75
2022/06/04 05:56:34;;;;;;;9.00;5.70;;;13.50;99.90;;;;;;5087624;28;20019;-74
2022/06/04 05:59:02;;;;;;;7.60;5.00;;;13.60;99.90;;;;;;5089029;28;20040;-73
2022/06/04 06:01:31;;;;;;;11.57;6.72;;;13.70;99.90;;;;;;5089507;28;20108;-73
2022/06/04 06:03:56;;;;;;;10.02;6.43;;;13.70;99.90;;;;;;5089624;28;20016;-73
2022/06/04 06:06:25;;;;;;;9.45;7.28;;;13.90;99.90;;;;;;5090093;28;20581;-74
2022/06/04 06:08:52;;;;;;;8.23;6.18;;;14.00;99.90;;;;;;5090965;28;20012;-74
2022/06/04 06:11:19;;;;;;;10.77;6.90;;;14.10;99.90;;;;;;5089999;28;20486;-73
2022/06/04 06:13:46;;;;;;;12.90;6.93;;;14.10;99.90;;;;;;5089390;28;20039;-73
2022/06/04 06:16:24;;;;;;;13.25;6.63;;;14.10;99.90;;;;;;5094160;28;20051;-73
2022/06/04 06:18:50;;;;;;;11.15;7.13;;;14.10;99.90;;;;;;5093630;28;20026;-73
2022/06/04 06:21:20;;;;;;;10.10;6.35;;;14.20;99.90;;;;;;5092802;28;20024;-73
2022/06/04 06:23:46;;;;;;;7.00;5.95;;;14.30;99.90;;;;;;5093597;28;20044;-73
2022/06/04 06:26:14;;;;;;;13.85;6.97;;;14.40;99.90;;;;;;5092921;28;20563;-74
2022/06/04 06:28:41;;;;;;;9.27;6.18;;;14.50;99.90;;;;;;5093611;28;20031;-74
2022/06/04 06:31:09;;;;;;;14.88;7.28;;;14.60;99.90;;;;;;5093249;28;20019;-74
2022/06/04 06:33:34;;;;;;;10.00;6.05;;;14.70;99.90;;;;;;5093966;28;20184;-74
2022/06/04 06:36:03;;;;;;;11.32;5.97;;;14.70;99.90;;;;;;5094329;28;20515;-74
2022/06/04 06:38:29;;;;;;;8.98;5.85;;;14.70;99.90;;;;;;5093599;28;20484;-73
2022/06/04 06:40:57;;;;;;;11.98;6.55;;;14.80;99.90;;;;;;5093457;28;20069;-74
2022/06/04 06:43:32;;;;;;;8.07;6.00;;;14.90;99.90;;;;;;5094104;28;20036;-74
2022/06/04 06:46:10;;;;;;;7.30;5.72;;;14.90;99.90;;;;;;5094261;28;20065;-74
2022/06/04 06:48:38;;;;;;;7.03;6.32;;;15.00;99.90;;;;;;5093800;28;20027;-73
2022/06/04 06:51:13;;;;;;;9.40;6.28;;;14.90;99.90;;;;;;5094093;28;20024;-74
2022/06/04 06:53:39;;;;;;;12.23;6.25;;;15.00;99.90;;;;;;5094103;28;20040;-75
2022/06/04 06:56:23;;;;;;;8.45;6.15;;;15.00;99.90;;;;;;5093061;28;20031;-74
2022/06/04 06:58:49;;;;;;;6.30;5.70;;;15.20;99.90;;;;;;5093666;28;20502;-75
2022/06/04 07:01:15;;;;;;;9.07;6.10;;;15.30;99.90;;;;;;5093908;28;20116;-74
2022/06/04 07:03:42;;;;;;;12.32;5.50;;;15.40;99.90;;;;;;5093599;28;20486;-74
2022/06/04 07:06:10;;;;;;;9.68;5.85;;;15.50;99.90;;;;;;5093640;28;20105;-74
2022/06/04 07:08:37;;;;;;;8.98;6.30;;;15.50;99.90;;;;;;5093353;28;20112;-74
2022/06/04 07:11:04;;;;;;;14.27;6.03;;;15.70;99.90;;;;;;5093455;28;20415;-74
2022/06/04 07:13:30;;;;;;;8.25;6.25;;;15.80;99.90;;;;;;5094139;28;20040;-74
2022/06/04 07:15:55;;;;;;;9.77;5.72;;;15.80;99.90;;;;;;5093222;28;20119;-74
2022/06/04 07:18:23;;;;;;;8.20;6.35;;;15.80;99.90;;;;;;5093616;28;20027;-73
2022/06/04 07:20:48;;;;;;;8.02;5.93;;;15.80;99.90;;;;;;5084976;28;20016;-73
2022/06/04 07:23:15;;;;;;;7.72;6.55;;;15.90;99.90;;;;;;5092019;28;20391;-73
2022/06/04 07:25:41;;;;;;;8.30;5.75;;;15.90;99.90;;;;;;5092498;28;20024;-73
2022/06/04 07:28:09;;;;;;;6.32;5.72;;;16.00;99.90;;;;;;5092350;28;20559;-73
2022/06/04 07:30:35;;;;;;;7.05;5.22;;;16.10;99.90;;;;;;5091887;28;20333;-73
2022/06/04 07:33:01;;;;;;;10.65;6.15;;;16.20;99.90;;;;;;5091999;28;20472;-72
2022/06/04 07:35:27;;;;;;;6.03;5.43;;;16.30;99.90;;;;;;5092258;28;20066;-73
2022/06/04 07:37:52;;;;;;;14.73;6.30;;;16.20;99.90;;;;;;5091596;28;20039;-73
2022/06/04 07:40:18;;;;;;;11.73;6.70;;;16.20;99.90;;;;;;5093590;28;20515;-73
2022/06/04 07:42:45;;;;;;;7.78;5.57;;;16.10;99.90;;;;;;5093429;28;20034;-73
2022/06/04 07:45:12;;;;;;;9.13;5.38;;;16.20;99.90;;;;;;5093787;28;20513;-73
2022/06/04 07:47:40;;;;;;;10.63;6.00;;;16.20;99.90;;;;;;5093318;28;20047;-73
2022/06/04 07:50:07;;;;;;;9.30;5.82;;;16.30;99.90;;;;;;5092861;28;20016;-72
2022/06/04 07:52:32;;;;;;;8.25;5.78;;;16.20;99.90;;;;;;5092445;28;20496;-72
2022/06/04 07:54:59;;;;;;;6.90;5.15;;;16.30;99.90;;;;;;5092873;28;20094;-73
2022/06/04 07:57:25;;;;;;;8.93;5.45;;;16.40;99.90;;;;;;5093006;28;20080;-73
2022/06/04 07:59:50;;;;;;;7.43;4.93;;;16.60;99.90;;;;;;5092042;28;20043;-72
2022/06/04 08:02:16;;;;;;;11.07;5.53;;;16.70;99.90;;;;;;5093872;28;20031;-74
2022/06/04 08:04:42;;;;;;;9.57;4.75;;;16.90;99.90;;;;;;5093229;28;20028;-73
2022/06/04 08:07:07;;;;;;;7.85;5.70;;;16.90;99.90;;;;;;5092939;28;20031;-73
2022/06/04 08:09:33;;;;;;;7.43;5.75;;;17.00;99.90;;;;;;5093925;28;20497;-77
2022/06/04 08:11:59;;;;;;;8.00;4.60;;;17.00;99.90;;;;;;5079324;28;20017;-74
2022/06/04 08:14:26;;;;;;;8.85;5.78;;;16.90;99.90;;;;;;5087996;28;20107;-74
2022/06/04 08:16:54;;;;;;;12.73;5.68;;;16.90;99.90;;;;;;5085807;28;20455;-74
2022/06/04 08:19:24;;;;;;;9.63;5.65;;;17.00;99.90;;;;;;5088222;28;20025;-74
2022/06/04 08:21:51;;;;;;;14.88;5.78;;;17.00;99.90;;;;;;5083803;28;20028;-74
2022/06/04 08:24:17;;;;;;;6.50;4.95;;;17.10;99.90;;;;;;5093237;28;20133;-75
2022/06/04 08:26:45;;;;;;;5.95;4.60;;;17.10;99.90;;;;;;5089237;28;20020;-74
2022/06/04 08:29:12;;;;;;;6.60;4.78;;;17.00;99.90;;;;;;5085816;28;20028;-74
2022/06/04 08:31:38;;;;;;;7.90;5.13;;;17.00;99.90;;;;;;5091673;28;20016;-74
2022/06/04 08:34:05;;;;;;;6.05;5.13;;;17.00;99.90;;;;;;5104668;28;20040;-74
2022/06/04 08:36:31;;;;;;;5.57;5.07;;;17.00;99.90;;;;;;5101965;28;20024;-73
2022/06/04 08:38:56;;;;;;;7.93;4.22;;;17.00;99.90;;;;;;5106451;28;20039;-73
2022/06/04 08:41:48;;;;;;;5.72;4.97;;;17.00;99.90;;;;;;5106825;28;20465;-73
2022/06/04 08:44:26;;;;;;;7.30;5.15;;;16.90;99.90;;;;;;5103960;28;20383;-76
2022/06/04 08:47:00;;;;;;;7.28;5.05;;;17.00;99.90;;;;;;5103163;28;20023;-74
2022/06/04 08:49:37;;;;;;;6.55;5.32;;;17.00;99.90;;;;;;5098062;28;20037;-75
2022/06/04 08:52:14;;;;;;;7.55;5.28;;;17.00;99.90;;;;;;5106312;28;20086;-73
2022/06/04 08:57:32;;;;;;;9.90;5.28;;;17.20;99.90;;;;;;5097742;28;20093;-74
2022/06/04 09:00:04;;;;;;;5.47;4.97;;;17.30;99.90;;;;;;5097655;28;20138;-73
2022/06/04 09:03:07;;;;;;;6.68;5.45;;;17.50;99.90;;;;;;5099471;28;20020;-73
2022/06/04 09:05:48;;;;;;;7.57;4.85;;;17.60;99.90;;;;;;5106455;28;20022;-74
2022/06/04 09:08:53;;;;;;;11.20;5.18;;;17.60;99.90;;;;;;5107745;28;20035;-74
2022/06/04 09:11:51;;;;;;;7.38;4.20;;;17.70;99.90;;;;;;5107812;28;20016;-74
2022/06/04 09:14:23;;;;;;;8.65;5.30;;;17.80;99.90;;;;;;5099277;28;20402;-74
2022/06/04 09:16:58;;;;;;;10.70;5.40;;;17.70;99.90;;;;;;5107989;28;20043;-74
2022/06/04 09:19:32;;;;;;;6.60;5.07;;;17.80;99.90;;;;;;5102498;28;20437;-74
2022/06/04 09:21:58;;;;;;;4.80;4.30;;;17.90;99.90;;;;;;5100739;28;20028;-73
2022/06/04 09:24:25;;;;;;;6.85;5.05;;;18.00;99.90;;;;;;5105272;28;20031;-74
2022/06/04 09:27:05;;;;;;;7.47;5.03;;;18.00;99.90;;;;;;5107461;28;20425;-74
2022/06/04 09:29:42;;;;;;;10.70;4.75;;;18.20;99.90;;;;;;5104381;28;20024;-74
2022/06/04 09:32:20;;;;;;;6.28;4.40;;;18.40;99.90;;;;;;5105222;28;20443;-74
2022/06/04 09:34:49;;;;;;;5.35;4.40;;;18.50;99.90;;;;;;5105445;28;20012;-74
2022/06/04 09:37:15;;;;;;;15.15;4.85;;;18.70;99.90;;;;;;5106186;28;20019;-72
2022/06/04 09:39:45;;;;;;;7.13;4.65;;;18.80;99.90;;;;;;5104878;28;20042;-74
2022/06/04 09:42:13;;;;;;;7.63;4.65;;;18.90;99.90;;;;;;5107605;28;20395;-73
2022/06/04 09:45:05;;;;;;;7.07;4.85;;;19.00;99.90;;;;;;5103455;28;20031;-72
2022/06/04 09:47:42;;;;;;;8.75;5.25;;;18.80;99.90;;;;;;5102539;28;20036;-72
2022/06/04 09:50:28;;;;;;;8.68;5.32;;;18.80;99.90;;;;;;5109332;28;20023;-72
2022/06/04 09:53:23;;;;;;;7.78;4.05;;;18.90;99.90;;;;;;5110670;28;20364;-69
2022/06/04 09:55:57;;;;;;;5.32;4.43;;;18.90;99.90;;;;;;5103571;28;20032;-72
2022/06/04 09:58:33;;;;;;;6.45;4.10;;;18.90;99.90;;;;;;5104987;28;20113;-72
2022/06/04 10:01:14;;;;;;;5.15;4.13;;;19.00;99.90;;;;;;5109070;28;20023;-72
2022/06/04 10:03:41;;;;;;;4.72;4.32;;;19.10;99.90;;;;;;5108296;28;20491;-73
2022/06/04 10:06:12;;;;;;;5.35;4.22;;;19.30;99.90;;;;;;5110321;28;20023;-72
2022/06/04 10:11:59;;;;;;;5.68;4.05;;;19.40;99.90;;;;;;5053502;28;20594;-73
2022/06/04 10:14:34;;;;;;;;;;;19.40;99.90;;;;;;5099946;28;20024;-73
2022/06/04 10:17:00;;;;;;;6.50;5.10;;;19.50;99.90;;;;;;5097690;28;19974;-73
2022/06/04 10:19:26;;;;;;;4.07;3.45;;;19.60;99.90;;;;;;5100232;28;20020;-73
2022/06/04 10:22:05;;;;;;;4.53;3.90;;;19.70;99.90;;;;;;5096962;28;20097;-72
2022/06/04 10:24:35;;;;;;;5.80;4.60;;;19.80;99.90;;;;;;5097706;28;20020;-73
2022/06/04 10:27:22;;;;;;;5.10;4.63;;;19.90;99.90;;;;;;5102026;28;20036;-71
2022/06/04 10:30:18;;;;;;;4.55;4.03;;;19.80;99.70;;;;;;5108891;28;20024;-72
2022/06/04 10:33:14;;;;;;;4.30;3.90;;;19.90;99.90;;;;;;5107509;28;20038;-71
2022/06/04 10:36:01;;;;;;;6.20;4.68;;;20.00;99.90;;;;;;5108390;28;20046;-72
2022/06/04 10:38:56;;;;;;;5.07;4.22;;;20.10;99.70;;;;;;5111518;28;20028;-72
2022/06/04 10:41:49;;;;;;;4.38;3.97;;;20.10;99.50;;;;;;5109517;28;20077;-72
2022/06/04 10:44:42;;;;;;;6.40;4.47;;;20.20;99.60;;;;;;5105361;28;20020;-73
2022/06/04 10:47:35;;;;;;;9.18;4.85;;;20.30;99.70;;;;;;5108585;28;20164;-72
2022/06/04 10:50:28;;;;;;;7.57;4.15;;;20.50;99.90;;;;;;5104419;28;20607;-73
2022/06/04 10:53:04;;;;;;;8.30;4.35;;;20.70;99.10;;;;;;5101823;28;20127;-71
2022/06/04 10:55:46;;;;;;;5.90;4.18;;;20.80;99.10;;;;;;5096969;28;20084;-72
2022/06/04 10:58:28;;;;;;;7.68;4.30;;;20.90;98.70;;;;;;5099182;28;20104;-72
2022/06/04 11:01:04;;;;;;;4.40;4.00;;;20.90;98.70;;;;;;5097200;28;20238;-72
2022/06/04 11:03:52;;;;;;;4.95;4.28;;;20.70;98.70;;;;;;5095172;28;20042;-72
2022/06/04 11:06:32;;;;;;;4.90;4.43;;;20.70;98.40;;;;;;5101587;28;20035;-72
2022/06/04 11:09:03;;;;;;;7.40;3.90;;;20.60;98.90;;;;;;5108547;28;20028;-72
2022/06/04 11:11:38;;;;;;;4.25;3.85;;;20.80;98.80;;;;;;5103014;28;20277;-72
2022/06/04 11:14:11;;;;;;;9.77;5.00;;;20.80;98.60;;;;;;5105915;28;20047;-72
2022/06/04 11:16:37;;;;;;;5.68;4.22;;;21.00;98.30;;;;;;5108312;28;20046;-72
2022/06/04 11:19:14;;;;;;;5.65;4.45;;;21.20;98.30;;;;;;5106560;28;20468;-71
2022/06/04 11:21:47;;;;;;;7.40;4.45;;;21.30;97.50;;;;;;5110170;28;20039;-72
2022/06/04 11:24:13;;;;;;;5.93;4.90;;;21.30;97.50;;;;;;5106984;28;20032;-72
2022/06/04 11:26:50;;;;;;;4.32;3.85;;;21.30;97.30;;;;;;5105373;28;20452;-72
2022/06/04 11:29:16;;;;;;;5.85;4.93;;;21.20;97.60;;;;;;5099674;28;20064;-71
2022/06/04 11:31:44;;;;;;;10.00;3.80;;;21.20;97.20;;;;;;5105982;28;20023;-71
2022/06/04 11:34:44;;;;;;;10.63;5.22;;;21.10;97.20;;;;;;5101579;28;20475;-72
2022/06/04 11:37:12;;;;;;;4.30;3.88;;;21.10;97.30;;;;;;5100674;28;20090;-71
2022/06/04 11:39:53;;;;;;;5.55;4.10;;;21.30;97.20;;;;;;5103598;28;20065;-72
2022/06/04 11:42:52;;;;;;;10.82;5.43;;;21.30;96.90;;;;;;5109750;28;20024;-71
2022/06/04 11:45:40;;;;;;;10.38;5.20;;;21.40;97.60;;;;;;5104297;28;20487;-72
2022/06/04 11:48:27;;;;;;;33.38;6.97;;;21.40;96.90;;;;;;5104395;28;20085;-72
2022/06/04 11:51:02;;;;;;;4.45;3.80;;;21.50;97.30;;;;;;5099215;28;20384;-71
2022/06/04 11:54:17;;;;;;;10.68;4.88;;;21.70;96.90;;;;;;5107879;28;20042;-70
2022/06/04 11:57:09;;;;;;;6.95;4.85;;;21.90;96.70;;;;;;5102769;28;20037;-71
2022/06/04 11:59:52;;;;;;;6.40;5.13;;;22.00;96.40;;;;;;5109992;28;20096;-71
2022/06/04 12:02:39;;;;;;;6.38;5.03;;;22.00;96.10;;;;;;5108999;28;20479;-71
2022/06/04 12:05:18;;;;;;;6.43;4.53;;;22.00;96.30;;;;;;5104902;28;20035;-71
2022/06/04 12:07:47;;;;;;;10.00;4.20;;;22.00;96.00;;;;;;5103529;28;20108;-72
2022/06/04 12:10:47;;;;;;;6.72;4.72;;;22.10;96.30;;;;;;5110527;28;20361;-72
2022/06/04 12:13:42;;;;;;;5.03;3.78;;;22.30;96.00;;;;;;5104732;28;20027;-72
2022/06/04 12:16:13;;;;;;;5.10;4.15;;;22.40;95.40;;;;;;5104486;28;20039;-72
2022/06/04 12:19:00;;;;;;;9.43;4.78;;;22.50;95.30;;;;;;5109899;28;20012;-72
2022/06/04 12:24:40;;;;;;;3.95;3.63;;;22.60;95.40;;;;;;5103762;28;20039;-72
2022/06/04 12:27:21;;;;;;;7.25;4.55;;;22.30;95.40;;;;;;5106850;28;20068;-72
2022/06/04 12:29:56;;;;;;;7.70;4.20;;;22.20;96.00;;;;;;5104101;28;20126;-71
2022/06/04 12:32:34;;;;;;;6.90;4.53;;;22.10;95.80;;;;;;5109373;28;20455;-72
2022/06/04 12:35:09;;;;;;;5.68;5.05;;;22.00;95.80;;;;;;5108886;28;20020;-72
2022/06/04 12:37:38;;;;;;;5.43;4.38;;;22.10;95.90;;;;;;5108123;28;20024;-71
2022/06/04 12:40:34;;;;;;;11.40;4.47;;;22.20;96.00;;;;;;5103410;28;20028;-72
2022/06/04 12:43:15;;;;;;;10.27;3.97;;;22.30;96.40;;;;;;5076201;28;20039;-72
2022/06/04 12:45:47;;;;;;;11.18;4.60;;;22.30;95.70;;;;;;5104032;28;20027;-72
2022/06/04 12:48:37;;;;;;;6.50;4.28;;;22.20;95.30;;;;;;5106089;28;20020;-72
2022/06/04 12:51:04;;;;;;;4.82;4.43;;;22.20;95.50;;;;;;5105909;28;20020;-72
2022/06/04 12:53:34;;;;;;;9.98;4.45;;;22.20;95.80;;;;;;5095446;28;20036;-72
2022/06/04 12:56:06;;;;;;;4.43;3.72;;;22.20;95.90;;;;;;5089390;28;20054;-72
2022/06/04 12:58:42;;;;;;;4.93;4.32;;;22.30;95.90;;;;;;5086778;28;20133;-72
2022/06/04 13:01:18;;;;;;;5.55;3.90;;;22.30;95.20;;;;;;5085836;28;20051;-72
2022/06/04 13:03:45;;;;;;;10.45;4.25;;;22.30;95.70;;;;;;5087281;28;20052;-72
2022/06/04 13:06:32;;;;;;;5.25;4.75;;;22.50;95.10;;;;;;5088366;28;20457;-72
2022/06/04 13:09:13;;;;;;;5.65;3.88;;;22.30;95.40;;;;;;5090914;28;20107;-73
2022/06/04 13:11:59;;;;;;;5.10;4.60;;;22.20;95.50;;;;;;5092338;28;20472;-72
2022/06/04 13:14:53;;;;;;;4.20;3.88;;;22.20;95.70;;;;;;5091212;28;20498;-73
2022/06/04 13:17:38;;;;;;;7.53;4.50;;;22.30;95.40;;;;;;5092078;28;20442;-72
2022/06/04 13:20:31;;;;;;;4.47;4.07;;;22.50;95.30;;;;;;5090494;28;20047;-72
2022/06/04 13:23:24;;;;;;;8.38;3.80;;;22.70;95.40;;;;;;5091216;28;20028;-72
2022/06/04 13:26:27;;;;;;;4.80;4.40;;;22.80;95.10;;;;;;5091639;28;20024;-72
2022/06/04 13:28:54;;;;;;;5.55;4.07;;;22.90;95.10;;;;;;5043822;28;20085;-73
2022/06/04 13:31:28;;;;;;;7.40;4.22;;;23.00;94.70;;;;;;5096132;28;20106;-73
2022/06/04 13:33:55;;;;;;;6.13;4.47;;;23.10;94.40;;;;;;5092164;28;20086;-73